Time;durP1;ratioP1;P1;durP2;ratioP2;P2;SDS_P1;SDS_P2;PMS_P1;PMS_P2;Temp;Humidity;BMP_temperature;BMP_pressure;BME280_temperature;BME280_humidity;BME280_pressure;Samples;Min_cycle;Max_cycle;Signal;HPM_P1;HPM_P2
2023/10/10 00:01:43;;;;;;;11.43;5.03;;;13.50;99.90;;;;;;5061808;28;20206;-61
2023/10/10 00:04:12;;;;;;;11.23;5.10;;;13.50;99.90;;;;;;5045204;28;20244;-61
2023/10/10 00:06:39;;;;;;;11.03;5.00;;;13.50;99.90;;;;;;5061247;28;20222;-61
2023/10/10 00:09:09;;;;;;;11.57;4.80;;;13.60;99.90;;;;;;5064233;28;20233;-62
2023/10/10 00:11:41;;;;;;;15.00;5.17;;;13.60;99.90;;;;;;5064819;28;20204;-61
2023/10/10 00:14:15;;;;;;;10.07;4.93;;;13.60;99.90;;;;;;5056549;28;20208;-62
2023/10/10 00:16:42;;;;;;;16.27;4.80;;;13.50;99.90;;;;;;5064797;28;20225;-62
2023/10/10 00:19:18;;;;;;;13.80;4.90;;;13.50;99.90;;;;;;5044915;28;20202;-61
2023/10/10 00:21:46;;;;;;;11.87;5.10;;;13.40;99.90;;;;;;5061419;28;20201;-62
2023/10/10 00:24:14;;;;;;;14.40;5.13;;;13.40;99.90;;;;;;5064560;28;20201;-61
2023/10/10 00:26:43;;;;;;;10.63;4.47;;;13.40;99.90;;;;;;5064467;28;20224;-62
2023/10/10 00:29:11;;;;;;;15.73;5.13;;;13.40;99.90;;;;;;5056479;28;20217;-63
2023/10/10 00:31:43;;;;;;;14.83;4.90;;;13.40;99.90;;;;;;5056905;28;20213;-61
2023/10/10 00:34:13;;;;;;;11.23;4.77;;;13.40;99.90;;;;;;5056421;28;20197;-63
2023/10/10 00:36:41;;;;;;;12.90;4.57;;;13.40;99.90;;;;;;5064226;28;20315;-61
2023/10/10 00:39:21;;;;;;;14.37;4.33;;;13.30;99.90;;;;;;5060459;28;20205;-61
2023/10/10 00:41:53;;;;;;;13.73;5.00;;;13.30;99.90;;;;;;5061464;28;20206;-61
2023/10/10 00:44:21;;;;;;;12.03;4.73;;;13.30;99.90;;;;;;5064071;28;20227;-61
2023/10/10 00:46:54;;;;;;;9.13;4.67;;;13.30;99.90;;;;;;5063142;28;20241;-61
2023/10/10 00:49:24;;;;;;;7.87;4.63;;;13.30;99.90;;;;;;5060272;28;20224;-60
2023/10/10 00:51:53;;;;;;;9.37;4.60;;;13.30;99.90;;;;;;5061593;28;20579;-60
2023/10/10 00:54:29;;;;;;;14.77;4.70;;;13.30;99.90;;;;;;5064057;28;20208;-61
2023/10/10 00:56:59;;;;;;;12.63;4.60;;;13.30;99.90;;;;;;5062011;28;20266;-61
2023/10/10 00:59:32;;;;;;;15.60;4.80;;;13.30;99.90;;;;;;5060069;28;20198;-61
2023/10/10 01:02:00;;;;;;;15.50;4.60;;;13.30;99.90;;;;;;5062097;28;20213;-62
2023/10/10 01:04:38;;;;;;;11.47;4.57;;;13.20;99.90;;;;;;5063995;28;20235;-62
2023/10/10 01:07:07;;;;;;;12.17;5.00;;;13.20;99.90;;;;;;5060454;28;20718;-61
2023/10/10 01:09:39;;;;;;;15.33;5.20;;;13.20;99.90;;;;;;5060292;28;20213;-61
2023/10/10 01:12:06;;;;;;;12.87;4.47;;;13.20;99.90;;;;;;5063838;28;20197;-61
2023/10/10 01:14:33;;;;;;;11.07;4.57;;;13.10;99.90;;;;;;5064392;28;20201;-61
2023/10/10 01:16:59;;;;;;;8.97;4.40;;;13.20;99.90;;;;;;5061987;28;20640;-61
2023/10/10 01:19:29;;;;;;;12.20;4.63;;;13.20;99.90;;;;;;5061176;28;20202;-60
2023/10/10 01:21:58;;;;;;;10.43;4.90;;;13.20;99.90;;;;;;5062393;28;20269;-60
2023/10/10 01:24:26;;;;;;;11.10;4.40;;;13.20;99.90;;;;;;5064452;28;20223;-61
2023/10/10 01:26:52;;;;;;;14.93;4.83;;;13.20;99.90;;;;;;5062637;28;20225;-62
2023/10/10 01:29:25;;;;;;;10.83;4.57;;;13.20;99.90;;;;;;5060485;28;20279;-62
2023/10/10 01:31:52;;;;;;;10.33;4.63;;;13.10;99.90;;;;;;5061334;28;20209;-61
2023/10/10 01:34:33;;;;;;;14.43;4.70;;;13.10;99.90;;;;;;5063773;28;20201;-61
2023/10/10 01:37:07;;;;;;;17.97;4.47;;;13.10;99.90;;;;;;5061455;28;20418;-61
2023/10/10 01:39:47;;;;;;;11.47;4.27;;;13.00;99.90;;;;;;5060492;28;20295;-61
2023/10/10 01:42:16;;;;;;;15.83;4.37;;;13.10;99.90;;;;;;5044501;28;20201;-63
2023/10/10 01:44:43;;;;;;;13.63;4.47;;;13.00;99.90;;;;;;5060395;28;20209;-60
2023/10/10 01:47:18;;;;;;;10.47;4.20;;;13.00;99.90;;;;;;5043720;28;20217;-61
2023/10/10 01:49:46;;;;;;;12.63;4.80;;;13.00;99.90;;;;;;5060084;28;20308;-60
2023/10/10 01:52:17;;;;;;;12.67;4.73;;;12.90;99.90;;;;;;5063076;28;20709;-61
2023/10/10 01:54:46;;;;;;;11.13;4.47;;;12.90;99.90;;;;;;5063109;28;20627;-61
2023/10/10 01:57:21;;;;;;;10.07;4.53;;;12.90;99.90;;;;;;5062600;28;20204;-60
2023/10/10 01:59:47;;;;;;;14.47;4.30;;;12.90;99.90;;;;;;5062417;28;20201;-61
2023/10/10 02:02:16;;;;;;;14.70;4.70;;;12.80;99.90;;;;;;5059616;28;20193;-60
2023/10/10 02:04:44;;;;;;;12.57;4.70;;;12.80;99.90;;;;;;5059701;28;20229;-60
2023/10/10 02:07:21;;;;;;;9.63;4.43;;;12.80;99.90;;;;;;5054713;28;20255;-60
2023/10/10 02:09:59;;;;;;;11.33;4.30;;;12.80;99.90;;;;;;5062365;28;20227;-61
2023/10/10 02:12:26;;;;;;;7.80;4.20;;;12.80;99.90;;;;;;5059310;28;20208;-61
2023/10/10 02:14:54;;;;;;;10.63;4.47;;;12.70;99.90;;;;;;5059583;28;20267;-61
2023/10/10 02:17:21;;;;;;;12.63;4.97;;;12.70;99.90;;;;;;5062655;28;20196;-60
2023/10/10 02:19:57;;;;;;;14.77;5.10;;;12.70;99.90;;;;;;5061968;28;20193;-62
2023/10/10 02:22:33;;;;;;;9.20;4.13;;;12.70;99.90;;;;;;5058873;28;20201;-62
2023/10/10 02:27:55;;;;;;;13.90;4.70;;;12.70;99.90;;;;;;5060058;28;20649;-62
2023/10/10 02:30:35;;;;;;;12.73;5.13;;;12.70;99.90;;;;;;5059035;28;20201;-62
2023/10/10 02:33:12;;;;;;;8.70;4.07;;;12.60;99.90;;;;;;5060740;28;20217;-62
2023/10/10 02:35:54;;;;;;;10.40;4.30;;;12.60;99.90;;;;;;5061832;28;20236;-62
2023/10/10 02:38:25;;;;;;;13.63;5.17;;;12.60;99.90;;;;;;5043174;28;20663;-61
2023/10/10 02:40:56;;;;;;;16.17;5.93;;;12.50;99.90;;;;;;5059343;28;20205;-62
2023/10/10 02:43:45;;;;;;;10.60;4.77;;;12.40;99.90;;;;;;5062247;28;20215;-61
2023/10/10 02:46:17;;;;;;;9.07;4.37;;;12.40;99.90;;;;;;5053857;28;20686;-60
2023/10/10 02:48:44;;;;;;;14.20;4.97;;;12.40;99.90;;;;;;5062412;28;20227;-61
2023/10/10 02:51:15;;;;;;;13.27;4.67;;;12.40;99.90;;;;;;5059067;28;20396;-61
2023/10/10 02:53:46;;;;;;;14.00;4.63;;;12.40;99.90;;;;;;5059104;28;20206;-61
2023/10/10 02:56:18;;;;;;;12.57;4.47;;;12.30;99.90;;;;;;5053773;28;20301;-61
2023/10/10 02:58:45;;;;;;;7.83;3.73;;;12.30;99.90;;;;;;5062121;28;20201;-61
2023/10/10 03:01:27;;;;;;;10.30;4.00;;;12.20;99.90;;;;;;5058916;28;20232;-60
2023/10/10 03:03:55;;;;;;;10.90;4.43;;;12.30;99.90;;;;;;5059598;28;20262;-61
2023/10/10 03:06:28;;;;;;;12.67;4.10;;;12.30;99.90;;;;;;5061730;28;20694;-59
2023/10/10 03:09:07;;;;;;;11.43;4.27;;;12.30;99.90;;;;;;5060688;28;20710;-62
2023/10/10 03:11:40;;;;;;;12.10;4.33;;;12.30;99.90;;;;;;5058467;28;20258;-61
2023/10/10 03:14:08;;;;;;;10.97;4.00;;;12.30;99.90;;;;;;5061065;28;20310;-61
2023/10/10 03:16:54;;;;;;;10.53;4.23;;;12.30;99.90;;;;;;5061695;28;20266;-61
2023/10/10 03:19:27;;;;;;;12.20;4.97;;;12.40;99.90;;;;;;5054889;28;20221;-60
2023/10/10 03:22:19;;;;;;;11.70;4.23;;;12.30;99.90;;;;;;5060917;28;20196;-61
2023/10/10 03:25:03;;;;;;;11.27;4.37;;;12.30;99.90;;;;;;5058010;28;20259;-61
2023/10/10 03:27:49;;;;;;;10.50;4.60;;;12.30;99.90;;;;;;5058449;28;20284;-60
2023/10/10 03:30:19;;;;;;;13.27;4.77;;;12.20;99.90;;;;;;5057738;28;20220;-61
2023/10/10 03:33:08;;;;;;;12.47;4.50;;;12.20;99.90;;;;;;5065526;28;20205;-61
2023/10/10 03:38:43;;;;;;;13.47;5.10;;;12.20;99.90;;;;;;5045875;28;20193;-61
2023/10/10 05:25:50;;;;;;;10.27;4.87;;;11.80;99.90;;;;;;5063356;28;20313;-59
2023/10/10 05:28:18;;;;;;;8.17;4.73;;;11.70;99.90;;;;;;5054851;28;20510;-60
2023/10/10 05:30:45;;;;;;;14.00;5.00;;;11.70;99.90;;;;;;5063716;28;20201;-60
2023/10/10 05:33:13;;;;;;;11.53;4.50;;;11.70;99.90;;;;;;5060691;28;20212;-60
2023/10/10 05:35:43;;;;;;;11.03;4.53;;;11.70;99.90;;;;;;5059927;28;20221;-59
2023/10/10 05:38:11;;;;;;;8.77;4.37;;;11.60;99.90;;;;;;5062485;28;20702;-59
2023/10/10 05:40:39;;;;;;;14.27;4.97;;;11.60;99.90;;;;;;5063199;28;20287;-59
2023/10/10 05:43:09;;;;;;;14.47;5.40;;;11.50;99.90;;;;;;5061190;28;20610;-60
2023/10/10 05:45:36;;;;;;;14.33;6.37;;;11.50;99.90;;;;;;5060497;28;20291;-60
2023/10/10 05:48:04;;;;;;;18.10;8.67;;;11.60;99.90;;;;;;5061174;28;20278;-60
2023/10/10 05:50:32;;;;;;;8.83;4.37;;;11.60;99.90;;;;;;5062730;28;20220;-60
2023/10/10 05:53:00;;;;;;;11.87;5.23;;;11.60;99.90;;;;;;5061795;28;20212;-62
2023/10/10 05:55:29;;;;;;;12.23;4.50;;;11.70;99.90;;;;;;5059831;28;20599;-60
2023/10/10 05:57:57;;;;;;;14.07;5.07;;;11.70;99.90;;;;;;5059548;28;20737;-61
2023/10/10 06:00:26;;;;;;;18.23;5.83;;;11.60;99.90;;;;;;5063331;28;20288;-60
2023/10/10 06:02:53;;;;;;;13.77;4.90;;;11.70;99.90;;;;;;5062944;28;20635;-62
2023/10/10 06:05:20;;;;;;;15.87;5.20;;;11.70;99.90;;;;;;5059390;28;20221;-61
2023/10/10 06:07:49;;;;;;;15.43;5.00;;;11.80;99.90;;;;;;5059324;28;20212;-60
2023/10/10 06:10:17;;;;;;;10.87;5.33;;;11.90;99.90;;;;;;5062430;28;20217;-61
2023/10/10 06:12:46;;;;;;;10.20;4.70;;;11.90;99.90;;;;;;5063007;28;20273;-60
2023/10/10 06:15:17;;;;;;;18.57;5.87;;;12.00;99.90;;;;;;5060233;28;20279;-60
2023/10/10 06:17:44;;;;;;;15.07;5.30;;;12.10;99.90;;;;;;5059029;28;20676;-61
2023/10/10 06:20:16;;;;;;;15.47;6.07;;;12.20;99.90;;;;;;5061474;28;20209;-60
2023/10/10 06:22:44;;;;;;;13.50;4.90;;;12.40;99.90;;;;;;5062153;28;20288;-60
2023/10/10 06:25:11;;;;;;;14.40;5.20;;;12.60;99.90;;;;;;5059664;28;20235;-60
2023/10/10 06:27:40;;;;;;;15.80;5.10;;;12.90;99.90;;;;;;5058776;28;20198;-61
2023/10/10 06:30:17;;;;;;;14.80;5.07;;;13.20;99.90;;;;;;5060925;28;20248;-61
2023/10/10 06:32:44;;;;;;;12.83;4.77;;;13.40;99.90;;;;;;5062200;28;20196;-61
2023/10/10 06:35:26;;;;;;;11.83;5.27;;;13.50;99.90;;;;;;5059543;28;20736;-62
2023/10/10 06:37:53;;;;;;;13.93;6.37;;;13.80;99.90;;;;;;5058426;28;20201;-60
2023/10/10 06:40:25;;;;;;;10.10;5.37;;;14.10;99.90;;;;;;5042219;28;20301;-61
2023/10/10 06:42:55;;;;;;;20.23;5.07;;;14.40;99.90;;;;;;5058241;28;20300;-60
2023/10/10 06:45:24;;;;;;;19.80;5.20;;;14.90;99.90;;;;;;5058206;28;20291;-59
2023/10/10 06:47:52;;;;;;;17.60;5.43;;;15.30;99.90;;;;;;5057810;28;20209;-60
2023/10/10 06:50:21;;;;;;;13.00;5.20;;;15.60;99.90;;;;;;5061498;28;20294;-60
2023/10/10 06:52:52;;;;;;;10.73;4.80;;;15.90;99.90;;;;;;5061568;28;20201;-60
2023/10/10 06:55:22;;;;;;;18.13;6.00;;;16.10;99.90;;;;;;5058152;28;20253;-61
2023/10/10 06:57:58;;;;;;;16.77;5.60;;;16.30;99.90;;;;;;5058014;28;20206;-60
2023/10/10 07:00:40;;;;;;;16.48;5.13;;;16.60;99.90;;;;;;5043661;28;20220;-60
2023/10/10 07:03:07;;;;;;;23.02;13.80;;;16.90;99.90;;;;;;5064087;28;20671;-60
2023/10/10 07:05:34;;;;;;;14.15;5.47;;;17.10;99.90;;;;;;5065893;28;20228;-60
2023/10/10 07:08:18;;;;;;;11.32;4.72;;;17.40;99.90;;;;;;5064571;28;20228;-60
2023/10/10 07:10:45;;;;;;;12.38;4.57;;;17.80;99.90;;;;;;5062116;28;20324;-61
2023/10/10 07:13:14;;;;;;;12.45;4.47;;;18.30;99.90;;;;;;5064344;28;20256;-60
2023/10/10 07:15:42;;;;;;;14.95;4.78;;;18.80;99.90;;;;;;5065396;28;20247;-63
2023/10/10 07:18:14;;;;;;;14.27;6.80;;;19.30;99.90;;;;;;5063446;28;20232;-62
2023/10/10 07:21:04;;;;;;;14.65;5.20;;;19.70;99.90;;;;;;5062246;28;20201;-59
2023/10/10 07:23:37;;;;;;;13.75;4.60;;;20.00;99.90;;;;;;5047204;28;20220;-61
2023/10/10 07:26:06;;;;;;;11.57;5.00;;;20.00;99.90;;;;;;5063017;28;20253;-58
2023/10/10 07:28:47;;;;;;;10.25;4.75;;;19.90;99.90;;;;;;5065026;28;20255;-60
2023/10/10 07:31:18;;;;;;;12.30;4.55;;;19.60;99.90;;;;;;5062308;28;20258;-57
2023/10/10 07:33:54;;;;;;;10.57;4.40;;;19.20;99.90;;;;;;5061786;28;20201;-60
2023/10/10 07:36:24;;;;;;;13.65;4.97;;;18.90;99.90;;;;;;5056669;28;20227;-58
2023/10/10 07:38:54;;;;;;;9.60;4.95;;;18.70;99.90;;;;;;5065054;28;20207;-59
2023/10/10 07:41:27;;;;;;;15.98;4.80;;;18.60;99.90;;;;;;5045017;28;20689;-61
2023/10/10 07:43:58;;;;;;;13.10;4.82;;;18.50;99.90;;;;;;5061901;28;20211;-58
2023/10/10 07:46:27;;;;;;;16.13;5.00;;;18.30;99.90;;;;;;5061699;28;20762;-58
2023/10/10 07:48:54;;;;;;;11.73;4.80;;;18.30;99.90;;;;;;5061511;28;20225;-58
2023/10/10 07:51:28;;;;;;;16.20;5.28;;;18.30;99.90;;;;;;5065071;28;20197;-57
2023/10/10 07:54:10;;;;;;;12.68;4.70;;;18.30;99.90;;;;;;5065055;28;20254;-58
2023/10/10 07:56:45;;;;;;;15.60;5.00;;;18.50;99.90;;;;;;5059137;28;20653;-54
2023/10/10 07:59:12;;;;;;;12.80;5.00;;;18.50;99.90;;;;;;5062894;28;20276;-56
2023/10/10 08:01:41;;;;;;;18.08;6.25;;;18.50;99.90;;;;;;5061549;28;20206;-55
2023/10/10 08:04:08;;;;;;;14.30;5.78;;;18.50;99.90;;;;;;5062903;28;20233;-55
2023/10/10 08:06:35;;;;;;;12.32;5.75;;;18.70;99.90;;;;;;5064548;28;20253;-56
2023/10/10 08:09:18;;;;;;;23.95;10.77;;;18.90;99.90;;;;;;5063599;28;20200;-55
2023/10/10 08:11:45;;;;;;;43.55;26.00;;;18.90;99.90;;;;;;5060586;28;20292;-54
2023/10/10 08:14:12;;;;;;;48.70;32.78;;;18.80;99.90;;;;;;5063233;28;20248;-57
2023/10/10 08:16:43;;;;;;;49.88;34.38;;;18.80;99.90;;;;;;5064409;28;20224;-54
2023/10/10 08:19:10;;;;;;;49.75;32.28;;;18.80;99.90;;;;;;5062281;28;20229;-54
2023/10/10 08:21:39;;;;;;;27.02;11.82;;;18.70;99.90;;;;;;5060945;28;20216;-55
2023/10/10 08:24:08;;;;;;;15.55;5.72;;;18.50;99.90;;;;;;5062127;28;20205;-57
2023/10/10 08:26:39;;;;;;;17.25;5.80;;;18.30;99.90;;;;;;5064309;28;20275;-54
2023/10/10 08:29:08;;;;;;;15.43;5.57;;;18.30;99.90;;;;;;5062533;28;20204;-55
2023/10/10 08:31:36;;;;;;;14.38;6.13;;;18.40;99.90;;;;;;5060813;28;20205;-54
2023/10/10 08:34:05;;;;;;;16.10;5.82;;;18.50;99.90;;;;;;5061682;28;20212;-55
2023/10/10 08:36:32;;;;;;;20.50;6.00;;;18.70;99.90;;;;;;5064125;28;20293;-56
2023/10/10 08:39:16;;;;;;;18.77;9.35;;;18.80;99.90;;;;;;5063218;28;20201;-55
2023/10/10 08:41:44;;;;;;;16.40;8.98;;;19.00;99.90;;;;;;5060658;28;20208;-55
2023/10/10 08:44:14;;;;;;;19.25;11.00;;;19.10;99.90;;;;;;5062366;28;20209;-55
2023/10/10 08:46:46;;;;;;;21.58;9.60;;;19.40;99.90;;;;;;5064168;28;20311;-54
2023/10/10 08:49:15;;;;;;;27.38;10.65;;;19.50;99.90;;;;;;5061777;28;20216;-55
2023/10/10 08:51:43;;;;;;;24.02;10.30;;;19.70;99.90;;;;;;5060844;28;20221;-54
2023/10/10 08:54:11;;;;;;;26.42;10.98;;;19.90;99.90;;;;;;5062089;28;20209;-54
2023/10/10 08:56:40;;;;;;;23.88;10.82;;;20.00;99.90;;;;;;5063732;28;20229;-54
2023/10/10 08:59:08;;;;;;;15.45;8.93;;;20.20;99.90;;;;;;5062223;28;20205;-57
2023/10/10 09:01:38;;;;;;;16.75;7.05;;;20.30;99.90;;;;;;5060768;28;20594;-54
2023/10/10 09:04:07;;;;;;;18.15;5.90;;;20.40;99.90;;;;;;5061113;28;20635;-56
2023/10/10 09:06:43;;;;;;;11.15;4.75;;;20.50;99.90;;;;;;5063693;28;20225;-55
2023/10/10 09:09:33;;;;;;;13.63;4.38;;;20.60;99.90;;;;;;5061911;28;20299;-55
2023/10/10 09:12:02;;;;;;;11.80;4.72;;;20.70;99.90;;;;;;5060239;28;20205;-58
2023/10/10 09:14:42;;;;;;;13.88;4.80;;;20.80;99.90;;;;;;5063972;28;20443;-59
2023/10/10 09:17:10;;;;;;;12.88;4.43;;;20.90;99.90;;;;;;5061270;28;20229;-54
2023/10/10 09:19:47;;;;;;;15.98;4.75;;;20.90;99.90;;;;;;5063310;28;20557;-55
2023/10/10 09:22:28;;;;;;;18.75;5.35;;;21.10;99.90;;;;;;5061473;28;20602;-55
2023/10/10 09:24:56;;;;;;;15.40;5.13;;;21.00;99.90;;;;;;5058739;28;20300;-55
2023/10/10 09:27:27;;;;;;;11.75;4.38;;;21.10;99.90;;;;;;5062908;28;20703;-56
2023/10/10 09:29:57;;;;;;;12.45;4.93;;;21.30;99.90;;;;;;5064160;28;20250;-57
2023/10/10 09:32:36;;;;;;;14.30;5.05;;;21.40;99.90;;;;;;5043789;28;20198;-57
2023/10/10 09:35:08;;;;;;;14.73;5.28;;;21.60;99.90;;;;;;5060264;28;20236;-57
2023/10/10 09:37:42;;;;;;;11.65;4.55;;;21.80;99.90;;;;;;5062958;28;20212;-59
2023/10/10 09:40:16;;;;;;;13.18;5.00;;;21.80;99.90;;;;;;5061646;28;20671;-57
2023/10/10 09:43:03;;;;;;;15.57;5.18;;;21.70;99.90;;;;;;5059314;28;20209;-57
2023/10/10 09:45:53;;;;;;;15.00;5.07;;;21.80;99.90;;;;;;5055604;28;20252;-57
2023/10/10 09:48:46;;;;;;;14.52;5.45;;;22.00;99.90;;;;;;5060045;28;20205;-58
2023/10/10 09:51:31;;;;;;;15.40;5.40;;;22.30;99.90;;;;;;5061053;28;20329;-57
2023/10/10 09:54:15;;;;;;;12.43;5.70;;;22.40;99.90;;;;;;5062791;28;20215;-59
2023/10/10 09:56:46;;;;;;;10.98;5.03;;;22.40;99.90;;;;;;5045731;28;20729;-56
2023/10/10 09:59:16;;;;;;;11.82;4.60;;;22.60;99.90;;;;;;5061052;28;20643;-56
2023/10/10 10:01:46;;;;;;;10.98;4.75;;;22.80;99.90;;;;;;5062831;28;20284;-57
2023/10/10 10:04:18;;;;;;;14.52;5.28;;;22.90;99.90;;;;;;5060874;28;20237;-56
2023/10/10 10:07:18;;;;;;;16.77;5.13;;;23.00;99.90;;;;;;5059075;28;20721;-57
2023/10/10 10:10:12;;;;;;;14.68;4.93;;;23.20;99.90;;;;;;5045361;28;20666;-58
2023/10/10 10:13:13;;;;;;;9.73;4.43;;;23.20;99.90;;;;;;5044807;28;20208;-59
2023/10/10 10:15:58;;;;;;;15.60;4.80;;;23.30;99.90;;;;;;5044264;28;20283;-59
2023/10/10 10:18:28;;;;;;;13.15;4.70;;;23.60;99.90;;;;;;5063492;28;20685;-58
2023/10/10 10:21:16;;;;;;;14.45;5.28;;;23.70;99.90;;;;;;5062806;28;20197;-59
2023/10/10 10:23:46;;;;;;;9.95;4.80;;;23.80;99.90;;;;;;5045219;28;20288;-58
2023/10/10 10:26:31;;;;;;;11.20;4.72;;;23.90;99.90;;;;;;5060682;28;20590;-55
2023/10/10 10:29:00;;;;;;;13.35;4.97;;;24.00;99.90;;;;;;5062462;28;20205;-54
2023/10/10 10:31:35;;;;;;;14.15;4.65;;;24.20;99.90;;;;;;5042425;28;20725;-54
2023/10/10 10:34:06;;;;;;;9.30;4.70;;;24.40;99.90;;;;;;5059171;28;20209;-54
2023/10/10 10:36:41;;;;;;;10.73;4.65;;;24.50;99.90;;;;;;5061898;28;20224;-54
2023/10/10 10:39:20;;;;;;;10.45;4.55;;;24.60;99.90;;;;;;5061088;28;20296;-54
2023/10/10 10:41:53;;;;;;;10.27;4.88;;;24.70;99.90;;;;;;5059078;28;20279;-55
2023/10/10 10:44:44;;;;;;;14.60;5.13;;;24.70;99.90;;;;;;5061284;28;20215;-54
2023/10/10 10:47:35;;;;;;;13.60;4.80;;;24.80;99.90;;;;;;5060584;28;20592;-54
2023/10/10 10:50:02;;;;;;;15.40;5.05;;;24.90;99.90;;;;;;5058686;28;20679;-54
2023/10/10 10:52:44;;;;;;;13.05;5.07;;;24.90;99.90;;;;;;5062517;28;20197;-54
2023/10/10 10:55:22;;;;;;;14.23;4.85;;;24.90;99.90;;;;;;5060973;28;20301;-54
2023/10/10 10:58:05;;;;;;;12.45;4.78;;;25.10;99.90;;;;;;5081821;22;20224;-61
2023/10/10 11:00:57;;;;;;;12.35;5.10;;;25.10;99.80;;;;;;5051585;28;20612;-61
2023/10/10 11:03:25;;;;;;;13.80;4.75;;;25.10;99.60;;;;;;5062081;28;20624;-59
2023/10/10 11:05:55;;;;;;;11.90;5.00;;;25.20;99.60;;;;;;5062505;28;20216;-61
2023/10/10 11:08:51;;;;;;;10.40;4.68;;;25.20;99.90;;;;;;5051016;28;20276;-60
2023/10/10 11:11:23;;;;;;;15.80;5.35;;;25.10;99.90;;;;;;5050388;28;20603;-61
2023/10/10 11:13:54;;;;;;;12.18;5.35;;;25.00;99.90;;;;;;5050788;28;20213;-60
2023/10/10 11:16:23;;;;;;;14.95;5.35;;;24.80;99.90;;;;;;5050851;28;20212;-62
2023/10/10 11:18:57;;;;;;;9.77;4.80;;;24.80;99.90;;;;;;5050631;28;20202;-60
2023/10/10 11:21:28;;;;;;;14.35;5.47;;;24.80;99.90;;;;;;5050778;28;20280;-61
2023/10/10 11:23:58;;;;;;;8.77;4.72;;;24.80;99.80;;;;;;5050704;28;20697;-60
2023/10/10 11:26:33;;;;;;;11.70;5.05;;;24.70;99.80;;;;;;5050579;28;20276;-60
2023/10/10 11:29:01;;;;;;;12.13;4.47;;;24.70;99.70;;;;;;5050440;28;20205;-60
2023/10/10 11:31:34;;;;;;;9.07;4.68;;;24.80;99.60;;;;;;5034741;28;20228;-60
2023/10/10 11:34:25;;;;;;;11.85;4.78;;;24.80;99.50;;;;;;5050746;28;20369;-59
2023/10/10 11:37:12;;;;;;;13.60;4.97;;;24.80;99.30;;;;;;5041360;28;20225;-60
2023/10/10 11:39:46;;;;;;;14.00;4.95;;;24.70;99.00;;;;;;5038230;28;20205;-60
2023/10/10 11:42:23;;;;;;;16.45;5.25;;;24.70;99.10;;;;;;5050810;28;20212;-59
2023/10/10 11:44:54;;;;;;;10.20;4.95;;;24.70;98.80;;;;;;5051004;28;20563;-60
2023/10/10 11:47:25;;;;;;;15.85;7.97;;;24.80;98.00;;;;;;5051489;28;20226;-61
2023/10/10 11:50:00;;;;;;;11.07;4.97;;;24.90;96.70;;;;;;5054277;28;20202;-59
2023/10/10 11:52:28;;;;;;;16.85;5.45;;;24.90;96.60;;;;;;5054249;28;20198;-61
2023/10/10 11:54:58;;;;;;;11.45;5.25;;;24.90;96.00;;;;;;5054157;28;20686;-60
2023/10/10 11:57:28;;;;;;;11.13;4.82;;;25.00;95.20;;;;;;5053777;28;20707;-60
2023/10/10 11:59:59;;;;;;;11.38;5.13;;;25.00;94.90;;;;;;5053966;28;20237;-60
2023/10/10 12:02:39;;;;;;;8.68;4.50;;;25.00;94.80;;;;;;5053878;28;20330;-60
2023/10/10 12:05:28;;;;;;;11.85;5.43;;;25.10;94.70;;;;;;5053710;28;20663;-62
2023/10/10 12:07:58;;;;;;;11.23;4.75;;;25.20;94.60;;;;;;5053307;28;20293;-60
2023/10/10 12:10:40;;;;;;;12.00;5.10;;;25.20;94.10;;;;;;5053432;28;20668;-61
2023/10/10 12:13:09;;;;;;;9.05;5.07;;;25.30;94.20;;;;;;5053580;28;20206;-60
2023/10/10 12:15:40;;;;;;;14.73;5.65;;;25.20;90.70;;;;;;5053818;28;20206;-60
2023/10/10 12:18:09;;;;;;;9.25;4.93;;;25.10;91.50;;;;;;5053559;28;20232;-61
2023/10/10 12:20:36;;;;;;;14.45;6.20;;;25.00;91.70;;;;;;5053913;28;20301;-60
2023/10/10 12:23:03;;;;;;;17.80;6.20;;;25.10;87.60;;;;;;5053339;28;20210;-60
2023/10/10 12:25:30;;;;;;;12.20;5.78;;;25.10;85.40;;;;;;5053289;28;20575;-60
2023/10/10 12:28:00;;;;;;;16.02;6.72;;;25.20;82.60;;;;;;5053292;28;20217;-61
2023/10/10 12:30:27;;;;;;;11.57;6.18;;;25.20;80.20;;;;;;5053267;28;20201;-61
2023/10/10 12:32:56;;;;;;;16.08;6.38;;;25.20;77.40;;;;;;5053629;28;20275;-60
2023/10/10 12:35:25;;;;;;;12.57;6.15;;;25.20;75.80;;;;;;5053459;28;20209;-60
2023/10/10 12:38:01;;;;;;;18.52;6.90;;;25.10;76.80;;;;;;5052969;28;20323;-60
2023/10/10 12:40:28;;;;;;;15.65;5.95;;;25.10;78.90;;;;;;5053349;28;20237;-60
2023/10/10 12:42:54;;;;;;;15.05;6.15;;;25.10;80.40;;;;;;5053402;28;20612;-59
2023/10/10 12:45:21;;;;;;;12.60;6.47;;;25.20;81.60;;;;;;5052982;28;20213;-60
2023/10/10 12:47:48;;;;;;;13.70;6.45;;;25.30;82.60;;;;;;5052861;28;20225;-60
2023/10/10 12:50:16;;;;;;;14.13;6.28;;;25.40;82.90;;;;;;5052914;28;20216;-61
2023/10/10 12:52:46;;;;;;;13.88;5.97;;;25.60;81.70;;;;;;5053116;28;20624;-61
2023/10/10 12:55:13;;;;;;;11.98;5.80;;;25.60;81.60;;;;;;5053006;28;20889;-60
2023/10/10 12:57:40;;;;;;;9.90;5.55;;;25.70;81.20;;;;;;5052881;28;20225;-60
2023/10/10 13:00:33;;;;;;;8.48;5.22;;;25.60;80.80;;;;;;5052820;28;20201;-59
2023/10/10 13:02:59;;;;;;;9.77;5.63;;;25.60;80.80;;;;;;5052859;28;20301;-59
2023/10/10 13:05:28;;;;;;;10.85;5.32;;;25.60;80.80;;;;;;5052769;28;20210;-59
2023/10/10 13:07:58;;;;;;;16.10;5.80;;;25.70;80.80;;;;;;5052922;28;20225;-60
2023/10/10 13:10:27;;;;;;;13.77;5.55;;;25.70;80.90;;;;;;5052925;28;20209;-58
2023/10/10 13:12:54;;;;;;;15.18;5.70;;;25.70;80.40;;;;;;5052976;28;20221;-60
2023/10/10 13:15:29;;;;;;;12.98;5.80;;;25.80;80.40;;;;;;5052329;28;20209;-60
2023/10/10 13:20:39;;;;;;;13.07;5.45;;;25.80;80.60;;;;;;5038364;28;20251;-60
2023/10/10 13:23:07;;;;;;;12.52;5.70;;;26.00;80.40;;;;;;5053558;28;20210;-60
2023/10/10 13:25:37;;;;;;;14.20;5.97;;;26.20;80.40;;;;;;5053348;28;20627;-59
2023/10/10 13:28:09;;;;;;;8.90;5.65;;;26.20;79.20;;;;;;5053747;28;20257;-60
2023/10/10 13:30:36;;;;;;;10.18;5.32;;;26.20;79.10;;;;;;5039281;28;20217;-59
2023/10/10 13:33:05;;;;;;;14.25;6.50;;;26.20;79.20;;;;;;5054412;28;20213;-60
2023/10/10 13:35:36;;;;;;;13.23;6.20;;;26.20;79.80;;;;;;5037422;28;20213;-60
2023/10/10 13:38:05;;;;;;;19.52;5.88;;;26.20;79.50;;;;;;5053228;28;20229;-61
2023/10/10 13:40:37;;;;;;;14.55;6.13;;;26.10;78.80;;;;;;5053546;28;20201;-61
2023/10/10 13:43:08;;;;;;;9.15;5.78;;;26.10;78.30;;;;;;5053491;28;20317;-60
2023/10/10 13:45:37;;;;;;;14.02;6.10;;;26.00;78.40;;;;;;5038111;28;20197;-60
2023/10/10 13:48:08;;;;;;;12.40;5.60;;;26.00;78.30;;;;;;5053266;28;20323;-61
2023/10/10 13:50:41;;;;;;;10.98;6.00;;;25.90;79.30;;;;;;5038191;28;20206;-60
2023/10/10 13:53:12;;;;;;;12.88;6.28;;;25.80;80.60;;;;;;5053651;28;20567;-61
2023/10/10 13:55:40;;;;;;;13.30;6.00;;;25.70;80.80;;;;;;5053590;28;20307;-62
2023/10/10 13:58:07;;;;;;;10.70;6.03;;;25.90;80.60;;;;;;5053646;28;20316;-62
2023/10/10 14:00:36;;;;;;;10.75;5.57;;;26.00;80.00;;;;;;5037657;28;20202;-61
2023/10/10 14:03:04;;;;;;;17.83;6.00;;;26.00;80.50;;;;;;5053240;28;20201;-60
2023/10/10 14:05:33;;;;;;;12.20;5.78;;;25.80;80.50;;;;;;5053345;28;20202;-60
2023/10/10 14:08:01;;;;;;;13.65;6.05;;;25.80;80.90;;;;;;5052991;28;20271;-59
2023/10/10 14:10:35;;;;;;;10.55;6.22;;;25.70;80.80;;;;;;5052971;28;20343;-59
2023/10/10 14:13:18;;;;;;;11.68;5.63;;;25.70;80.70;;;;;;5053082;28;20213;-59
2023/10/10 14:15:54;;;;;;;13.60;5.30;;;25.60;80.80;;;;;;5040028;28;20197;-60
2023/10/10 14:18:22;;;;;;;10.48;5.65;;;25.50;80.70;;;;;;5052918;28;20601;-62
2023/10/10 14:20:50;;;;;;;10.90;6.05;;;25.50;81.40;;;;;;5053286;28;20210;-61
2023/10/10 14:23:19;;;;;;;15.00;6.97;;;25.40;81.10;;;;;;5053091;28;20209;-61
2023/10/10 14:25:47;;;;;;;12.13;5.45;;;25.50;81.50;;;;;;5053411;28;20197;-61
2023/10/10 14:28:16;;;;;;;10.30;5.32;;;25.50;82.70;;;;;;5052867;28;20228;-60
2023/10/10 14:30:43;;;;;;;12.90;5.72;;;25.40;84.40;;;;;;5053243;28;20281;-62
2023/10/10 14:33:10;;;;;;;13.73;5.05;;;25.40;85.50;;;;;;5052683;28;20240;-61
2023/10/10 14:35:37;;;;;;;14.68;5.65;;;25.30;87.10;;;;;;5053427;28;20205;-60
2023/10/10 14:38:04;;;;;;;11.15;5.65;;;25.20;87.20;;;;;;5053535;28;20615;-60
2023/10/10 14:40:33;;;;;;;12.10;5.82;;;25.10;87.90;;;;;;5052822;28;20225;-60
2023/10/10 14:43:05;;;;;;;14.20;5.32;;;25.10;88.00;;;;;;5053500;28;20623;-61
2023/10/10 14:45:33;;;;;;;15.80;5.78;;;25.10;87.80;;;;;;5052809;28;20675;-61
2023/10/10 14:48:04;;;;;;;12.43;5.53;;;25.00;88.50;;;;;;5052645;28;20244;-60
2023/10/10 14:50:36;;;;;;;12.80;5.43;;;25.00;88.30;;;;;;5052959;28;20663;-60
2023/10/10 14:53:08;;;;;;;10.88;5.35;;;25.00;88.30;;;;;;5052754;28;20745;-61
2023/10/10 14:55:39;;;;;;;13.27;5.90;;;24.90;89.90;;;;;;5053068;28;20197;-60
2023/10/10 14:58:09;;;;;;;15.35;5.72;;;24.70;89.00;;;;;;5052181;28;20241;-61